sensor_id;sensor_type;location;lat;lon;timestamp;temperature;humidity
7598;DHT22;3840;59.32098800;18.06423600;2022-09-14T07:02:28;12.40;99.90
7598;DHT22;3840;59.32098800;18.06423600;2022-09-14T07:04:53;12.20;99.90
7598;DHT22;3840;59.32098800;18.06423600;2022-09-14T07:07:19;12.30;99.90
7598;DHT22;3840;59.32098800;18.06423600;2022-09-14T07:09:45;12.40;99.90
7598;DHT22;3840;59.32098800;18.06423600;2022-09-14T07:12:11;12.40;99.90
7598;DHT22;3840;59.32098800;18.06423600;2022-09-14T07:14:36;12.30;99.90
7598;DHT22;3840;59.32098800;18.06423600;2022-09-14T07:17:03;12.30;99.90
7598;DHT22;3840;59.32098800;18.06423600;2022-09-14T07:19:29;12.20;99.90
7598;DHT22;3840;59.32098800;18.06423600;2022-09-14T07:21:55;12.30;99.90
7598;DHT22;3840;59.32098800;18.06423600;2022-09-14T07:24:20;12.40;99.90
7598;DHT22;3840;59.32098800;18.06423600;2022-09-14T07:26:47;12.70;99.90
7598;DHT22;3840;59.32098800;18.06423600;2022-09-14T07:29:17;12.80;99.90
7598;DHT22;3840;59.32098800;18.06423600;2022-09-14T07:31:49;13.00;99.90
7598;DHT22;3840;59.32098800;18.06423600;2022-09-14T07:34:15;13.00;99.90
7598;DHT22;3840;59.32098800;18.06423600;2022-09-14T07:36:42;12.90;99.90
7598;DHT22;3840;59.32098800;18.06423600;2022-09-14T07:39:11;12.90;99.90
7598;DHT22;3840;59.32098800;18.06423600;2022-09-14T07:41:37;13.00;99.90
7598;DHT22;3840;59.32098800;18.06423600;2022-09-14T07:44:04;13.00;99.90
7598;DHT22;3840;59.32098800;18.06423600;2022-09-14T07:46:35;12.90;99.90
7598;DHT22;3840;59.32098800;18.06423600;2022-09-14T07:49:03;12.90;99.90
7598;DHT22;3840;59.32098800;18.06423600;2022-09-14T07:51:30;12.80;99.90
7598;DHT22;3840;59.32098800;18.06423600;2022-09-14T07:53:57;12.70;99.90
7598;DHT22;3840;59.32098800;18.06423600;2022-09-14T07:56:24;12.50;99.90
7598;DHT22;3840;59.32098800;18.06423600;2022-09-14T07:58:54;12.60;99.90
7598;DHT22;3840;59.32098800;18.06423600;2022-09-14T08:01:21;12.40;99.90
7598;DHT22;3840;59.32098800;18.06423600;2022-09-14T08:03:48;13.40;99.90
7598;DHT22;3840;59.32098800;18.06423600;2022-09-14T08:06:21;12.60;99.90
7598;DHT22;3840;59.32098800;18.06423600;2022-09-14T08:08:50;12.70;99.90
7598;DHT22;3840;59.32098800;18.06423600;2022-09-14T08:13:50;12.80;99.90
7598;DHT22;3840;59.32098800;18.06423600;2022-09-14T08:16:18;12.70;99.90
7598;DHT22;3840;59.32098800;18.06423600;2022-09-14T08:18:44;12.60;99.90
7598;DHT22;3840;59.32098800;18.06423600;2022-09-14T08:21:13;12.50;99.90
7598;DHT22;3840;59.32098800;18.06423600;2022-09-14T08:23:40;12.40;99.90
7598;DHT22;3840;59.32098800;18.06423600;2022-09-14T08:26:08;12.40;99.90
7598;DHT22;3840;59.32098800;18.06423600;2022-09-14T08:28:34;12.30;99.90
7598;DHT22;3840;59.32098800;18.06423600;2022-09-14T08:31:12;12.20;99.90
7598;DHT22;3840;59.32098800;18.06423600;2022-09-14T08:33:40;12.30;99.90
7598;DHT22;3840;59.32098800;18.06423600;2022-09-14T08:36:08;12.40;99.90
7598;DHT22;3840;59.32098800;18.06423600;2022-09-14T08:38:35;12.50;99.90
7598;DHT22;3840;59.32098800;18.06423600;2022-09-14T08:41:42;12.50;99.90
7598;DHT22;3840;59.32098800;18.06423600;2022-09-14T08:44:31;12.50;99.90
7598;DHT22;3840;59.32098800;18.06423600;2022-09-14T08:52:28;13.00;99.90
7598;DHT22;3840;59.32098800;18.06423600;2022-09-14T08:54:58;13.10;99.90
7598;DHT22;3840;59.32098800;18.06423600;2022-09-14T08:57:38;13.10;99.90
7598;DHT22;3840;59.32098800;18.06423600;2022-09-14T09:00:12;13.10;99.90
7598;DHT22;3840;59.32098800;18.06423600;2022-09-14T09:02:49;13.10;99.90
7598;DHT22;3840;59.32098800;18.06423600;2022-09-14T09:05:48;13.00;99.90
7598;DHT22;3840;59.32098800;18.06423600;2022-09-14T09:10:45;13.00;99.90
7598;DHT22;3840;59.32098800;18.06423600;2022-09-14T09:13:16;12.90;99.90
7598;DHT22;3840;59.32098800;18.06423600;2022-09-14T09:15:44;12.90;99.90
7598;DHT22;3840;59.32098800;18.06423600;2022-09-14T09:18:22;12.90;99.90
7598;DHT22;3840;59.32098800;18.06423600;2022-09-14T09:20:56;12.90;99.90
7598;DHT22;3840;59.32098800;18.06423600;2022-09-14T09:23:27;13.10;99.90
7598;DHT22;3840;59.32098800;18.06423600;2022-09-14T09:26:05;13.20;99.90
7598;DHT22;3840;59.32098800;18.06423600;2022-09-14T09:28:32;13.40;99.90
7598;DHT22;3840;59.32098800;18.06423600;2022-09-14T09:31:01;13.40;99.90
7598;DHT22;3840;59.32098800;18.06423600;2022-09-14T09:33:29;13.30;99.90
7598;DHT22;3840;59.32098800;18.06423600;2022-09-14T09:35:55;13.30;99.90
7598;DHT22;3840;59.32098800;18.06423600;2022-09-14T09:38:24;13.20;99.90
7598;DHT22;3840;59.32098800;18.06423600;2022-09-14T09:41:19;13.20;99.90
7598;DHT22;3840;59.32098800;18.06423600;2022-09-14T09:44:07;13.10;99.90
7598;DHT22;3840;59.32098800;18.06423600;2022-09-14T09:46:59;13.20;99.90
7598;DHT22;3840;59.32098800;18.06423600;2022-09-14T09:49:34;13.20;99.90
7598;DHT22;3840;59.32098800;18.06423600;2022-09-14T09:54:32;13.50;99.90
7598;DHT22;3840;59.32098800;18.06423600;2022-09-14T09:57:04;13.60;99.90
7598;DHT22;3840;59.32098800;18.06423600;2022-09-14T09:59:39;13.70;99.90
7598;DHT22;3840;59.32098800;18.06423600;2022-09-14T10:10:19;14.20;99.90
7598;DHT22;3840;59.32098800;18.06423600;2022-09-14T10:12:53;14.10;99.90
7598;DHT22;3840;59.32098800;18.06423600;2022-09-14T10:15:25;14.20;99.90
7598;DHT22;3840;59.32098800;18.06423600;2022-09-14T10:17:54;14.10;99.90
7598;DHT22;3840;59.32098800;18.06423600;2022-09-14T10:20:22;14.20;99.90
7598;DHT22;3840;59.32098800;18.06423600;2022-09-14T10:22:48;14.30;99.90
7598;DHT22;3840;59.32098800;18.06423600;2022-09-14T10:32:56;14.40;99.90
7598;DHT22;3840;59.32098800;18.06423600;2022-09-14T10:35:31;14.50;99.90
7598;DHT22;3840;59.32098800;18.06423600;2022-09-14T10:46:51;14.20;99.90
7598;DHT22;3840;59.32098800;18.06423600;2022-09-14T10:52:19;14.20;99.90
7598;DHT22;3840;59.32098800;18.06423600;2022-09-14T10:57:52;14.10;99.90
7598;DHT22;3840;59.32098800;18.06423600;2022-09-14T11:00:19;14.10;99.90
7598;DHT22;3840;59.32098800;18.06423600;2022-09-14T11:03:27;14.20;99.90
7598;DHT22;3840;59.32098800;18.06423600;2022-09-14T11:08:30;14.20;99.90
7598;DHT22;3840;59.32098800;18.06423600;2022-09-14T11:19:09;14.20;99.90
7598;DHT22;3840;59.32098800;18.06423600;2022-09-14T11:21:51;14.40;99.90
7598;DHT22;3840;59.32098800;18.06423600;2022-09-14T11:24:33;14.50;99.90
7598;DHT22;3840;59.32098800;18.06423600;2022-09-14T11:27:06;14.60;99.90
7598;DHT22;3840;59.32098800;18.06423600;2022-09-14T11:30:00;14.60;99.90
7598;DHT22;3840;59.32098800;18.06423600;2022-09-14T11:33:04;14.60;99.90
7598;DHT22;3840;59.32098800;18.06423600;2022-09-14T11:35:43;14.50;99.90
7598;DHT22;3840;59.32098800;18.06423600;2022-09-14T11:38:34;14.60;99.90
7598;DHT22;3840;59.32098800;18.06423600;2022-09-14T11:41:14;14.60;99.90
7598;DHT22;3840;59.32098800;18.06423600;2022-09-14T11:43:46;14.60;99.90
7598;DHT22;3840;59.32098800;18.06423600;2022-09-14T11:46:23;14.80;99.90
7598;DHT22;3840;59.32098800;18.06423600;2022-09-14T11:51:33;15.60;99.90
7598;DHT22;3840;59.32098800;18.06423600;2022-09-14T11:54:01;15.10;99.90
7598;DHT22;3840;59.32098800;18.06423600;2022-09-14T11:56:31;15.00;99.90
7598;DHT22;3840;59.32098800;18.06423600;2022-09-14T11:59:03;15.00;99.90
7598;DHT22;3840;59.32098800;18.06423600;2022-09-14T12:11:50;15.30;99.90
7598;DHT22;3840;59.32098800;18.06423600;2022-09-14T12:17:18;15.20;99.90
7598;DHT22;3840;59.32098800;18.06423600;2022-09-14T12:19:48;15.40;99.90
7598;DHT22;3840;59.32098800;18.06423600;2022-09-14T12:22:32;15.50;99.90
7598;DHT22;3840;59.32098800;18.06423600;2022-09-14T12:25:02;15.70;99.90
7598;DHT22;3840;59.32098800;18.06423600;2022-09-14T12:27:30;15.90;99.90
7598;DHT22;3840;59.32098800;18.06423600;2022-09-14T12:29:57;16.00;99.90
7598;DHT22;3840;59.32098800;18.06423600;2022-09-14T12:32:43;16.00;99.90
7598;DHT22;3840;59.32098800;18.06423600;2022-09-14T12:46:29;15.70;99.90
7598;DHT22;3840;59.32098800;18.06423600;2022-09-14T12:48:54;15.80;99.90
7598;DHT22;3840;59.32098800;18.06423600;2022-09-14T12:56:28;15.70;99.90
7598;DHT22;3840;59.32098800;18.06423600;2022-09-14T12:59:11;15.70;99.90
7598;DHT22;3840;59.32098800;18.06423600;2022-09-14T13:01:55;15.70;99.90
7598;DHT22;3840;59.32098800;18.06423600;2022-09-14T13:04:34;15.90;99.90
7598;DHT22;3840;59.32098800;18.06423600;2022-09-14T13:07:04;16.00;99.90
7598;DHT22;3840;59.32098800;18.06423600;2022-09-14T13:09:31;16.00;99.90
7598;DHT22;3840;59.32098800;18.06423600;2022-09-14T13:12:05;15.90;99.90
7598;DHT22;3840;59.32098800;18.06423600;2022-09-14T13:14:35;16.00;99.90
7598;DHT22;3840;59.32098800;18.06423600;2022-09-14T13:17:04;16.00;99.90
7598;DHT22;3840;59.32098800;18.06423600;2022-09-14T13:19:31;15.90;99.90
7598;DHT22;3840;59.32098800;18.06423600;2022-09-14T13:21:59;16.00;99.90
7598;DHT22;3840;59.32098800;18.06423600;2022-09-14T13:24:36;16.00;99.90
7598;DHT22;3840;59.32098800;18.06423600;2022-09-14T13:29:42;15.90;99.90
7598;DHT22;3840;59.32098800;18.06423600;2022-09-14T13:32:18;15.90;99.90
7598;DHT22;3840;59.32098800;18.06423600;2022-09-14T13:34:45;16.00;99.90
7598;DHT22;3840;59.32098800;18.06423600;2022-09-14T13:37:13;15.90;99.90
7598;DHT22;3840;59.32098800;18.06423600;2022-09-14T13:39:39;15.90;99.90
7598;DHT22;3840;59.32098800;18.06423600;2022-09-14T13:42:08;15.90;99.90
7598;DHT22;3840;59.32098800;18.06423600;2022-09-14T13:44:42;15.90;99.90
7598;DHT22;3840;59.32098800;18.06423600;2022-09-14T13:47:16;15.90;99.90
7598;DHT22;3840;59.32098800;18.06423600;2022-09-14T13:49:44;16.00;99.90
7598;DHT22;3840;59.32098800;18.06423600;2022-09-14T13:57:23;16.20;99.90
7598;DHT22;3840;59.32098800;18.06423600;2022-09-14T14:00:18;16.20;99.90
7598;DHT22;3840;59.32098800;18.06423600;2022-09-14T14:03:02;15.70;99.90
7598;DHT22;3840;59.32098800;18.06423600;2022-09-14T14:05:30;16.20;99.90
7598;DHT22;3840;59.32098800;18.06423600;2022-09-14T14:07:58;16.20;99.90
7598;DHT22;3840;59.32098800;18.06423600;2022-09-14T14:10:37;16.10;99.90
7598;DHT22;3840;59.32098800;18.06423600;2022-09-14T14:13:04;16.10;99.90
7598;DHT22;3840;59.32098800;18.06423600;2022-09-14T14:15:37;16.10;99.90
7598;DHT22;3840;59.32098800;18.06423600;2022-09-14T14:18:37;16.10;99.90
7598;DHT22;3840;59.32098800;18.06423600;2022-09-14T14:21:15;16.00;99.90
7598;DHT22;3840;59.32098800;18.06423600;2022-09-14T14:23:41;15.80;99.90
7598;DHT22;3840;59.32098800;18.06423600;2022-09-14T14:26:11;15.90;99.90
7598;DHT22;3840;59.32098800;18.06423600;2022-09-14T14:28:39;16.00;99.90
7598;DHT22;3840;59.32098800;18.06423600;2022-09-14T14:31:05;16.40;99.90
7598;DHT22;3840;59.32098800;18.06423600;2022-09-14T14:33:44;16.00;99.90
7598;DHT22;3840;59.32098800;18.06423600;2022-09-14T14:36:10;16.00;99.90
7598;DHT22;3840;59.32098800;18.06423600;2022-09-14T14:38:36;16.00;99.90
7598;DHT22;3840;59.32098800;18.06423600;2022-09-14T14:41:02;16.10;99.90
7598;DHT22;3840;59.32098800;18.06423600;2022-09-14T14:43:29;16.00;99.90
7598;DHT22;3840;59.32098800;18.06423600;2022-09-14T14:45:58;16.00;99.90
7598;DHT22;3840;59.32098800;18.06423600;2022-09-14T14:48:25;15.80;99.90
7598;DHT22;3840;59.32098800;18.06423600;2022-09-14T14:50:51;15.70;99.90
7598;DHT22;3840;59.32098800;18.06423600;2022-09-14T14:53:22;15.60;99.90
7598;DHT22;3840;59.32098800;18.06423600;2022-09-14T14:55:51;15.60;99.90
7598;DHT22;3840;59.32098800;18.06423600;2022-09-14T14:58:19;15.50;99.90
7598;DHT22;3840;59.32098800;18.06423600;2022-09-14T15:00:45;15.50;99.90
7598;DHT22;3840;59.32098800;18.06423600;2022-09-14T15:03:12;15.50;99.90
7598;DHT22;3840;59.32098800;18.06423600;2022-09-14T15:05:41;15.50;99.90
7598;DHT22;3840;59.32098800;18.06423600;2022-09-14T15:08:09;15.50;99.90
7598;DHT22;3840;59.32098800;18.06423600;2022-09-14T15:10:35;15.50;99.90
7598;DHT22;3840;59.32098800;18.06423600;2022-09-14T15:13:02;15.40;99.90
7598;DHT22;3840;59.32098800;18.06423600;2022-09-14T15:15:27;15.40;99.90
7598;DHT22;3840;59.32098800;18.06423600;2022-09-14T15:17:54;15.40;99.90
7598;DHT22;3840;59.32098800;18.06423600;2022-09-14T15:20:20;15.40;99.90
7598;DHT22;3840;59.32098800;18.06423600;2022-09-14T15:22:47;15.40;99.90
7598;DHT22;3840;59.32098800;18.06423600;2022-09-14T15:27:48;15.50;99.90
7598;DHT22;3840;59.32098800;18.06423600;2022-09-14T15:30:15;15.50;99.90
7598;DHT22;3840;59.32098800;18.06423600;2022-09-14T15:32:43;15.50;99.90
7598;DHT22;3840;59.32098800;18.06423600;2022-09-14T15:35:12;15.60;99.90
7598;DHT22;3840;59.32098800;18.06423600;2022-09-14T15:37:38;15.60;99.90
7598;DHT22;3840;59.32098800;18.06423600;2022-09-14T15:40:04;15.60;99.90
7598;DHT22;3840;59.32098800;18.06423600;2022-09-14T15:42:30;15.60;99.90
7598;DHT22;3840;59.32098800;18.06423600;2022-09-14T15:44:57;15.70;99.90
7598;DHT22;3840;59.32098800;18.06423600;2022-09-14T15:47:23;15.80;99.90
7598;DHT22;3840;59.32098800;18.06423600;2022-09-14T15:49:52;15.70;99.90
7598;DHT22;3840;59.32098800;18.06423600;2022-09-14T15:52:18;15.70;99.90
7598;DHT22;3840;59.32098800;18.06423600;2022-09-14T15:54:44;15.50;99.90
7598;DHT22;3840;59.32098800;18.06423600;2022-09-14T15:57:11;15.40;99.90
7598;DHT22;3840;59.32098800;18.06423600;2022-09-14T15:59:39;15.30;99.90
7598;DHT22;3840;59.32098800;18.06423600;2022-09-14T16:02:05;15.30;99.90
7598;DHT22;3840;59.32098800;18.06423600;2022-09-14T16:04:38;15.20;99.90
7598;DHT22;3840;59.32098800;18.06423600;2022-09-14T16:07:05;15.20;99.90
7598;DHT22;3840;59.32098800;18.06423600;2022-09-14T16:09:37;15.10;99.90
7598;DHT22;3840;59.32098800;18.06423600;2022-09-14T16:12:04;15.10;99.90
7598;DHT22;3840;59.32098800;18.06423600;2022-09-14T16:14:31;15.10;99.90
7598;DHT22;3840;59.32098800;18.06423600;2022-09-14T16:16:57;15.20;99.90
7598;DHT22;3840;59.32098800;18.06423600;2022-09-14T16:19:25;15.20;99.90
7598;DHT22;3840;59.32098800;18.06423600;2022-09-14T16:21:51;15.30;99.90
7598;DHT22;3840;59.32098800;18.06423600;2022-09-14T16:24:20;15.30;99.90
7598;DHT22;3840;59.32098800;18.06423600;2022-09-14T16:26:47;15.30;99.90
7598;DHT22;3840;59.32098800;18.06423600;2022-09-14T16:29:15;15.20;99.90
7598;DHT22;3840;59.32098800;18.06423600;2022-09-14T16:31:42;15.20;99.90
7598;DHT22;3840;59.32098800;18.06423600;2022-09-14T16:34:20;15.20;99.90
7598;DHT22;3840;59.32098800;18.06423600;2022-09-14T16:36:47;15.20;99.90
7598;DHT22;3840;59.32098800;18.06423600;2022-09-14T16:39:18;15.20;99.90
7598;DHT22;3840;59.32098800;18.06423600;2022-09-14T16:41:43;15.20;99.90
7598;DHT22;3840;59.32098800;18.06423600;2022-09-14T16:44:17;15.10;99.90
7598;DHT22;3840;59.32098800;18.06423600;2022-09-14T16:46:46;15.10;99.90
7598;DHT22;3840;59.32098800;18.06423600;2022-09-14T16:49:15;15.10;99.90
7598;DHT22;3840;59.32098800;18.06423600;2022-09-14T16:51:42;15.00;99.90
7598;DHT22;3840;59.32098800;18.06423600;2022-09-14T16:54:17;15.10;99.90
7598;DHT22;3840;59.32098800;18.06423600;2022-09-14T16:56:49;15.00;99.90
7598;DHT22;3840;59.32098800;18.06423600;2022-09-14T16:59:16;15.00;99.90
7598;DHT22;3840;59.32098800;18.06423600;2022-09-14T17:01:44;15.00;99.90
7598;DHT22;3840;59.32098800;18.06423600;2022-09-14T17:04:14;15.00;99.90
7598;DHT22;3840;59.32098800;18.06423600;2022-09-14T17:06:43;15.00;99.90
7598;DHT22;3840;59.32098800;18.06423600;2022-09-14T17:09:15;14.90;99.90
7598;DHT22;3840;59.32098800;18.06423600;2022-09-14T17:11:41;15.00;99.90
7598;DHT22;3840;59.32098800;18.06423600;2022-09-14T17:14:15;14.90;99.90
7598;DHT22;3840;59.32098800;18.06423600;2022-09-14T17:16:42;14.90;99.90
7598;DHT22;3840;59.32098800;18.06423600;2022-09-14T17:19:09;14.90;99.90
7598;DHT22;3840;59.32098800;18.06423600;2022-09-14T17:21:38;14.90;99.90
7598;DHT22;3840;59.32098800;18.06423600;2022-09-14T17:24:05;14.80;99.90
7598;DHT22;3840;59.32098800;18.06423600;2022-09-14T17:26:31;14.80;99.90
7598;DHT22;3840;59.32098800;18.06423600;2022-09-14T17:28:59;14.70;99.90
7598;DHT22;3840;59.32098800;18.06423600;2022-09-14T17:31:28;14.70;99.90
7598;DHT22;3840;59.32098800;18.06423600;2022-09-14T17:33:56;14.70;99.90
7598;DHT22;3840;59.32098800;18.06423600;2022-09-14T17:36:22;14.60;99.90
7598;DHT22;3840;59.32098800;18.06423600;2022-09-14T17:38:49;14.60;99.90
7598;DHT22;3840;59.32098800;18.06423600;2022-09-14T17:41:21;14.60;99.90
7598;DHT22;3840;59.32098800;18.06423600;2022-09-14T17:43:52;14.60;99.90
7598;DHT22;3840;59.32098800;18.06423600;2022-09-14T17:46:19;14.50;99.90
7598;DHT22;3840;59.32098800;18.06423600;2022-09-14T17:48:46;14.50;99.90
7598;DHT22;3840;59.32098800;18.06423600;2022-09-14T17:51:24;14.50;99.90
7598;DHT22;3840;59.32098800;18.06423600;2022-09-14T17:53:53;14.60;99.90
7598;DHT22;3840;59.32098800;18.06423600;2022-09-14T17:56:24;14.50;99.90
7598;DHT22;3840;59.32098800;18.06423600;2022-09-14T17:59:14;14.50;99.90
7598;DHT22;3840;59.32098800;18.06423600;2022-09-14T18:01:39;14.50;99.90
7598;DHT22;3840;59.32098800;18.06423600;2022-09-14T18:04:08;14.50;99.90
7598;DHT22;3840;59.32098800;18.06423600;2022-09-14T18:06:46;14.40;99.90
7598;DHT22;3840;59.32098800;18.06423600;2022-09-14T18:09:17;14.50;99.90
7598;DHT22;3840;59.32098800;18.06423600;2022-09-14T18:11:45;14.40;99.90
7598;DHT22;3840;59.32098800;18.06423600;2022-09-14T18:14:12;14.40;99.90
7598;DHT22;3840;59.32098800;18.06423600;2022-09-14T18:16:39;14.40;99.90
7598;DHT22;3840;59.32098800;18.06423600;2022-09-14T18:19:06;14.30;99.90
7598;DHT22;3840;59.32098800;18.06423600;2022-09-14T18:21:32;14.30;99.90
7598;DHT22;3840;59.32098800;18.06423600;2022-09-14T18:23:58;14.40;99.90
7598;DHT22;3840;59.32098800;18.06423600;2022-09-14T18:26:24;14.20;99.90
7598;DHT22;3840;59.32098800;18.06423600;2022-09-14T18:28:52;14.10;99.90
7598;DHT22;3840;59.32098800;18.06423600;2022-09-14T18:31:21;14.10;99.90
7598;DHT22;3840;59.32098800;18.06423600;2022-09-14T18:33:54;14.00;99.90
7598;DHT22;3840;59.32098800;18.06423600;2022-09-14T18:36:20;13.90;99.90
7598;DHT22;3840;59.32098800;18.06423600;2022-09-14T18:38:47;13.90;99.90
7598;DHT22;3840;59.32098800;18.06423600;2022-09-14T18:41:14;13.80;99.90
7598;DHT22;3840;59.32098800;18.06423600;2022-09-14T18:43:45;13.90;99.90
7598;DHT22;3840;59.32098800;18.06423600;2022-09-14T18:46:11;13.80;99.90
7598;DHT22;3840;59.32098800;18.06423600;2022-09-14T18:48:38;13.80;99.90
7598;DHT22;3840;59.32098800;18.06423600;2022-09-14T18:51:06;13.80;99.90
7598;DHT22;3840;59.32098800;18.06423600;2022-09-14T18:53:32;13.70;99.90
7598;DHT22;3840;59.32098800;18.06423600;2022-09-14T18:56:03;13.70;99.90
7598;DHT22;3840;59.32098800;18.06423600;2022-09-14T18:58:34;13.60;99.90
7598;DHT22;3840;59.32098800;18.06423600;2022-09-14T19:01:00;13.60;99.90
7598;DHT22;3840;59.32098800;18.06423600;2022-09-14T19:03:28;13.50;99.90
7598;DHT22;3840;59.32098800;18.06423600;2022-09-14T19:05:53;13.40;99.90
7598;DHT22;3840;59.32098800;18.06423600;2022-09-14T19:08:19;13.30;99.90
7598;DHT22;3840;59.32098800;18.06423600;2022-09-14T19:10:46;13.30;99.90
7598;DHT22;3840;59.32098800;18.06423600;2022-09-14T19:13:14;13.20;99.90
7598;DHT22;3840;59.32098800;18.06423600;2022-09-14T19:15:40;13.20;99.90
7598;DHT22;3840;59.32098800;18.06423600;2022-09-14T19:18:07;13.10;99.90
7598;DHT22;3840;59.32098800;18.06423600;2022-09-14T19:20:40;13.10;99.90
7598;DHT22;3840;59.32098800;18.06423600;2022-09-14T19:23:06;13.10;99.90
7598;DHT22;3840;59.32098800;18.06423600;2022-09-14T19:25:39;13.10;99.90
7598;DHT22;3840;59.32098800;18.06423600;2022-09-14T19:28:06;13.00;99.90
7598;DHT22;3840;59.32098800;18.06423600;2022-09-14T19:30:33;12.90;99.90
7598;DHT22;3840;59.32098800;18.06423600;2022-09-14T19:33:01;12.90;99.90
7598;DHT22;3840;59.32098800;18.06423600;2022-09-14T19:35:27;12.90;99.90
7598;DHT22;3840;59.32098800;18.06423600;2022-09-14T19:37:54;12.90;99.90
7598;DHT22;3840;59.32098800;18.06423600;2022-09-14T19:40:20;12.80;99.90
7598;DHT22;3840;59.32098800;18.06423600;2022-09-14T19:42:49;12.80;99.90
7598;DHT22;3840;59.32098800;18.06423600;2022-09-14T19:45:15;12.70;99.90
7598;DHT22;3840;59.32098800;18.06423600;2022-09-14T19:47:42;12.70;99.90
7598;DHT22;3840;59.32098800;18.06423600;2022-09-14T19:50:08;12.70;99.90
7598;DHT22;3840;59.32098800;18.06423600;2022-09-14T19:52:34;12.70;99.90
7598;DHT22;3840;59.32098800;18.06423600;2022-09-14T19:55:00;12.80;99.90
7598;DHT22;3840;59.32098800;18.06423600;2022-09-14T19:57:25;12.70;99.90
7598;DHT22;3840;59.32098800;18.06423600;2022-09-14T19:59:51;12.70;99.90
7598;DHT22;3840;59.32098800;18.06423600;2022-09-14T20:02:17;12.60;99.90
7598;DHT22;3840;59.32098800;18.06423600;2022-09-14T20:04:42;12.60;99.90
7598;DHT22;3840;59.32098800;18.06423600;2022-09-14T20:07:08;12.60;99.90
7598;DHT22;3840;59.32098800;18.06423600;2022-09-14T20:09:34;12.60;99.90
7598;DHT22;3840;59.32098800;18.06423600;2022-09-14T20:12:00;12.60;99.90
7598;DHT22;3840;59.32098800;18.06423600;2022-09-14T20:14:26;12.60;99.90
7598;DHT22;3840;59.32098800;18.06423600;2022-09-14T20:16:56;12.60;99.90
7598;DHT22;3840;59.32098800;18.06423600;2022-09-14T20:19:25;12.60;99.90
7598;DHT22;3840;59.32098800;18.06423600;2022-09-14T20:21:52;12.60;99.90
7598;DHT22;3840;59.32098800;18.06423600;2022-09-14T20:24:20;12.60;99.90
7598;DHT22;3840;59.32098800;18.06423600;2022-09-14T20:26:51;12.50;99.90
7598;DHT22;3840;59.32098800;18.06423600;2022-09-14T20:29:19;12.60;99.90
7598;DHT22;3840;59.32098800;18.06423600;2022-09-14T20:31:45;12.50;99.90
7598;DHT22;3840;59.32098800;18.06423600;2022-09-14T20:34:12;12.50;99.90
7598;DHT22;3840;59.32098800;18.06423600;2022-09-14T20:36:38;12.60;99.90
7598;DHT22;3840;59.32098800;18.06423600;2022-09-14T20:39:04;12.40;99.90
7598;DHT22;3840;59.32098800;18.06423600;2022-09-14T20:41:31;12.40;99.90
7598;DHT22;3840;59.32098800;18.06423600;2022-09-14T20:43:57;12.30;99.90
7598;DHT22;3840;59.32098800;18.06423600;2022-09-14T20:46:27;12.30;99.90
7598;DHT22;3840;59.32098800;18.06423600;2022-09-14T20:48:55;12.30;99.90
7598;DHT22;3840;59.32098800;18.06423600;2022-09-14T20:51:22;12.20;99.90
7598;DHT22;3840;59.32098800;18.06423600;2022-09-14T20:53:50;12.20;99.90
7598;DHT22;3840;59.32098800;18.06423600;2022-09-14T20:56:20;12.20;99.90
7598;DHT22;3840;59.32098800;18.06423600;2022-09-14T20:58:47;12.20;99.90
7598;DHT22;3840;59.32098800;18.06423600;2022-09-14T21:01:21;12.20;99.90
7598;DHT22;3840;59.32098800;18.06423600;2022-09-14T21:03:48;12.10;99.90
7598;DHT22;3840;59.32098800;18.06423600;2022-09-14T21:06:16;12.10;99.90
7598;DHT22;3840;59.32098800;18.06423600;2022-09-14T21:08:48;12.00;99.90
7598;DHT22;3840;59.32098800;18.06423600;2022-09-14T21:11:21;12.00;99.90
7598;DHT22;3840;59.32098800;18.06423600;2022-09-14T21:13:48;11.90;99.90
7598;DHT22;3840;59.32098800;18.06423600;2022-09-14T21:16:30;11.90;99.90
7598;DHT22;3840;59.32098800;18.06423600;2022-09-14T21:19:18;11.90;99.90
7598;DHT22;3840;59.32098800;18.06423600;2022-09-14T21:21:44;11.90;99.90
7598;DHT22;3840;59.32098800;18.06423600;2022-09-14T21:24:11;12.00;99.90
7598;DHT22;3840;59.32098800;18.06423600;2022-09-14T21:26:39;12.00;99.90
7598;DHT22;3840;59.32098800;18.06423600;2022-09-14T21:29:06;12.00;99.90
7598;DHT22;3840;59.32098800;18.06423600;2022-09-14T21:31:34;12.00;99.90
7598;DHT22;3840;59.32098800;18.06423600;2022-09-14T21:34:02;12.00;99.90
7598;DHT22;3840;59.32098800;18.06423600;2022-09-14T21:36:32;12.10;99.90
7598;DHT22;3840;59.32098800;18.06423600;2022-09-14T21:39:01;11.90;99.90
7598;DHT22;3840;59.32098800;18.06423600;2022-09-14T21:41:30;11.90;99.90
7598;DHT22;3840;59.32098800;18.06423600;2022-09-14T21:43:57;11.90;99.90
7598;DHT22;3840;59.32098800;18.06423600;2022-09-14T21:46:23;11.80;99.90
7598;DHT22;3840;59.32098800;18.06423600;2022-09-14T21:48:49;11.80;99.90
7598;DHT22;3840;59.32098800;18.06423600;2022-09-14T21:51:27;11.80;99.90
7598;DHT22;3840;59.32098800;18.06423600;2022-09-14T21:53:55;11.70;99.90
7598;DHT22;3840;59.32098800;18.06423600;2022-09-14T21:56:29;11.70;99.90
7598;DHT22;3840;59.32098800;18.06423600;2022-09-14T21:58:57;11.60;99.90
7598;DHT22;3840;59.32098800;18.06423600;2022-09-14T22:01:24;11.60;99.90
7598;DHT22;3840;59.32098800;18.06423600;2022-09-14T22:03:51;11.60;99.90
7598;DHT22;3840;59.32098800;18.06423600;2022-09-14T22:06:19;11.60;99.90
7598;DHT22;3840;59.32098800;18.06423600;2022-09-14T22:08:46;11.60;99.90
7598;DHT22;3840;59.32098800;18.06423600;2022-09-14T22:11:16;11.50;99.90
7598;DHT22;3840;59.32098800;18.06423600;2022-09-14T22:13:42;11.50;99.90
7598;DHT22;3840;59.32098800;18.06423600;2022-09-14T22:16:13;11.50;99.90
7598;DHT22;3840;59.32098800;18.06423600;2022-09-14T22:18:47;11.50;99.90
7598;DHT22;3840;59.32098800;18.06423600;2022-09-14T22:21:14;11.50;99.90
7598;DHT22;3840;59.32098800;18.06423600;2022-09-14T22:23:40;11.50;99.90
7598;DHT22;3840;59.32098800;18.06423600;2022-09-14T22:26:10;11.50;99.90
7598;DHT22;3840;59.32098800;18.06423600;2022-09-14T22:28:37;11.50;99.90